Time;durP1;ratioP1;P1;durP2;ratioP2;P2;SDS_P1;SDS_P2;PMS_P1;PMS_P2;Temp;Humidity;BMP_temperature;BMP_pressure;BME280_temperature;BME280_humidity;BME280_pressure;Samples;Min_cycle;Max_cycle;Signal;HPM_P1;HPM_P2
2023/08/25 00:01:49;;;;;;;4.18;2.60;;;;;;;21.45;81.44;100203.31;5092154;28;20208;-86
2023/08/25 00:04:16;;;;;;;2.90;2.33;;;;;;;21.47;80.99;100204.00;5092971;28;20196;-86
2023/08/25 00:06:42;;;;;;;4.22;2.83;;;;;;;21.52;80.71;100203.44;5092373;28;20683;-84
2023/08/25 00:09:09;;;;;;;4.32;2.70;;;;;;;21.54;80.54;100195.97;5092562;28;20204;-84
2023/08/25 00:11:36;;;;;;;5.10;3.05;;;;;;;21.54;80.47;100194.09;5085779;28;20604;-83
2023/08/25 00:14:04;;;;;;;4.10;2.30;;;;;;;21.55;80.09;100193.09;5092460;28;20265;-89
2023/08/25 00:16:31;;;;;;;4.00;2.90;;;;;;;21.58;80.16;100191.88;5091352;28;20277;-85
2023/08/25 00:18:57;;;;;;;4.78;3.17;;;;;;;21.59;79.86;100185.44;5086350;28;20690;-89
2023/08/25 00:21:24;;;;;;;3.53;2.53;;;;;;;21.60;79.88;100184.44;5092418;28;20223;-85
2023/08/25 00:23:50;;;;;;;6.78;2.60;;;;;;;21.62;79.66;100172.38;5096427;28;20204;-85
2023/08/25 00:26:17;;;;;;;3.92;2.65;;;;;;;21.63;79.58;100178.66;5088730;28;20235;-86
2023/08/25 00:28:43;;;;;;;3.25;2.95;;;;;;;21.64;79.39;100174.91;5090020;28;20656;-85
2023/08/25 00:31:11;;;;;;;3.63;2.35;;;;;;;21.64;79.45;100177.63;5091612;28;20596;-84
2023/08/25 00:33:47;;;;;;;6.43;2.72;;;;;;;21.63;79.23;100178.66;5092148;28;20200;-85
2023/08/25 00:36:14;;;;;;;2.97;2.58;;;;;;;21.63;79.01;100168.66;5082768;28;20811;-84
2023/08/25 00:38:40;;;;;;;4.50;2.70;;;;;;;21.64;78.94;100173.06;5090520;28;20218;-84
2023/08/25 00:41:07;;;;;;;4.82;2.83;;;;;;;21.69;78.92;100164.38;5088015;28;20580;-84
2023/08/25 00:43:34;;;;;;;3.55;2.47;;;;;;;21.68;78.81;100152.69;5089754;28;20565;-84
2023/08/25 00:46:01;;;;;;;4.35;2.85;;;;;;;21.67;78.75;100144.75;5079868;28;20613;-85
2023/08/25 00:48:29;;;;;;;3.03;2.50;;;;;;;21.68;78.45;100144.53;5087624;28;20200;-85
2023/08/25 00:50:56;;;;;;;3.83;2.95;;;;;;;21.72;77.94;100150.44;5089434;28;20231;-84
2023/08/25 00:53:23;;;;;;;3.90;2.60;;;;;;;21.80;76.78;100143.13;5090093;28;20211;-84
2023/08/25 00:55:51;;;;;;;3.80;2.55;;;;;;;21.80;76.63;100144.97;5092915;28;20261;-84
2023/08/25 00:58:17;;;;;;;3.63;2.28;;;;;;;21.81;76.08;100138.53;5082989;28;20192;-84
2023/08/25 01:00:45;;;;;;;3.22;2.35;;;;;;;21.87;75.60;100142.38;5092038;28;20196;-84
2023/08/25 01:03:11;;;;;;;3.45;2.15;;;;;;;21.90;75.08;100139.28;5090207;28;20218;-84
2023/08/25 01:05:40;;;;;;;2.80;2.25;;;;;;;21.89;75.19;100145.75;5091352;28;20223;-85
2023/08/25 01:08:07;;;;;;;3.17;2.03;;;;;;;21.89;74.97;100130.31;5082848;28;20205;-84
2023/08/25 01:10:54;;;;;;;3.85;2.22;;;;;;;21.91;74.94;100127.44;5085882;28;20250;-84
2023/08/25 01:13:27;;;;;;;3.67;2.30;;;;;;;21.92;74.68;100129.13;5083319;28;20210;-85
2023/08/25 01:15:54;;;;;;;2.83;2.00;;;;;;;21.92;74.66;100129.97;5090050;28;20716;-84
2023/08/25 01:18:25;;;;;;;3.67;2.03;;;;;;;21.92;74.71;100119.13;5083863;28;20196;-84
2023/08/25 01:20:55;;;;;;;3.75;2.00;;;;;;;21.92;74.90;100119.13;5088637;28;20204;-84
2023/08/25 01:23:32;;;;;;;2.53;1.60;;;;;;;21.91;75.17;100124.72;5091011;28;20206;-84
2023/08/25 01:26:02;;;;;;;2.53;2.25;;;;;;;21.89;75.09;100108.63;5091577;28;20231;-84
2023/08/25 01:28:29;;;;;;;2.92;2.15;;;;;;;21.88;75.06;100109.66;5085302;28;20204;-85
2023/08/25 01:30:56;;;;;;;3.30;2.45;;;;;;;21.88;75.29;100119.66;5083083;28;20228;-85
2023/08/25 01:33:23;;;;;;;4.13;2.50;;;;;;;21.87;75.54;100104.41;5084780;28;20196;-85
2023/08/25 01:36:00;;;;;;;4.50;1.95;;;;;;;21.85;75.51;100091.06;5091366;28;20703;-85
2023/08/25 01:38:31;;;;;;;4.55;2.45;;;;;;;21.84;75.52;100081.25;5084850;28;20200;-85
2023/08/25 01:41:06;;;;;;;4.25;1.83;;;;;;;21.85;75.46;100076.66;5090699;28;20200;-84
2023/08/25 01:43:35;;;;;;;4.40;1.92;;;;;;;21.82;75.25;100067.88;5091326;28;20203;-84
2023/08/25 01:46:02;;;;;;;3.25;2.28;;;;;;;21.80;75.27;100071.78;5083059;28;20220;-87
2023/08/25 01:48:31;;;;;;;2.90;1.83;;;;;;;21.79;75.15;100064.69;5088026;28;20292;-85
2023/08/25 01:50:57;;;;;;;3.70;1.98;;;;;;;21.77;75.23;100067.56;5086650;28;20232;-85
2023/08/25 01:53:24;;;;;;;4.40;2.03;;;;;;;21.76;75.15;100086.72;5082524;28;20221;-85
2023/08/25 01:55:50;;;;;;;2.78;2.40;;;;;;;21.77;74.96;100088.41;5085731;28;20224;-84
2023/08/25 01:58:18;;;;;;;3.17;1.88;;;;;;;21.80;74.82;100067.22;5090276;28;20208;-84
2023/08/25 02:00:45;;;;;;;2.85;2.22;;;;;;;21.81;74.92;100057.22;5081337;28;20201;-85
2023/08/25 02:03:13;;;;;;;3.63;1.92;;;;;;;21.81;75.11;100059.94;5088499;28;20227;-85
2023/08/25 02:05:40;;;;;;;3.08;1.80;;;;;;;21.84;75.09;100062.28;5084361;28;20234;-84
2023/08/25 02:08:06;;;;;;;3.60;1.90;;;;;;;21.84;74.91;100059.56;5088533;28;20212;-84
2023/08/25 02:10:33;;;;;;;3.17;1.70;;;;;;;21.85;74.47;100058.53;5091863;28;20220;-85
2023/08/25 02:13:00;;;;;;;2.92;1.92;;;;;;;21.83;74.26;100057.88;5089969;28;20207;-85
2023/08/25 02:15:27;;;;;;;3.50;2.08;;;;;;;21.82;74.88;100067.03;5091398;28;20206;-86
2023/08/25 02:17:54;;;;;;;3.45;2.00;;;;;;;21.79;75.53;100080.94;5086816;28;20773;-85
2023/08/25 02:20:20;;;;;;;3.55;1.95;;;;;;;21.75;76.51;100085.03;5089907;28;20206;-86
2023/08/25 02:22:47;;;;;;;3.38;2.28;;;;;;;21.72;76.96;100088.97;5089565;28;20204;-85
2023/08/25 02:25:13;;;;;;;3.25;2.30;;;;;;;21.68;77.36;100093.06;5092492;28;20204;-85
2023/08/25 02:27:40;;;;;;;3.55;2.25;;;;;;;21.64;77.60;100080.91;5093651;28;20719;-85
2023/08/25 02:30:08;;;;;;;2.65;2.25;;;;;;;21.57;78.02;100076.38;5086937;28;20215;-85
2023/08/25 02:32:35;;;;;;;2.67;2.10;;;;;;;21.53;78.25;100083.19;5094110;28;20208;-85
2023/08/25 02:35:02;;;;;;;2.67;2.47;;;;;;;21.47;78.37;100076.66;5093017;28;20672;-85
2023/08/25 02:37:29;;;;;;;3.05;2.00;;;;;;;21.43;78.58;100084.28;5088739;28;20223;-85
2023/08/25 02:39:55;;;;;;;2.90;2.20;;;;;;;21.40;78.95;100083.81;5088563;28;20215;-84
2023/08/25 02:42:21;;;;;;;3.50;2.53;;;;;;;21.35;79.29;100076.22;5092249;28;20468;-85
2023/08/25 02:44:48;;;;;;;3.67;2.45;;;;;;;21.33;79.56;100077.41;5089309;28;20203;-86
2023/08/25 02:47:15;;;;;;;4.13;2.30;;;;;;;21.30;79.61;100067.81;5091976;28;20226;-85
2023/08/25 02:49:42;;;;;;;4.93;2.42;;;;;;;21.26;79.74;100076.47;5094387;28;20204;-85
2023/08/25 02:52:09;;;;;;;3.28;2.10;;;;;;;21.24;79.76;100075.78;5095405;28;20234;-84
2023/08/25 02:54:35;;;;;;;4.25;2.67;;;;;;;21.19;79.99;100076.28;5095216;28;20196;-86
2023/08/25 02:57:02;;;;;;;3.80;2.60;;;;;;;21.13;79.79;100067.03;5080996;28;20243;-85
2023/08/25 02:59:28;;;;;;;3.08;2.53;;;;;;;21.08;79.98;100071.31;5093615;28;20569;-86
2023/08/25 03:01:55;;;;;;;2.97;2.42;;;;;;;21.00;80.43;100066.75;5095509;28;20196;-85
2023/08/25 03:04:22;;;;;;;3.72;2.50;;;;;;;20.96;80.99;100057.31;5088029;28;20265;-85
2023/08/25 03:06:49;;;;;;;3.45;2.58;;;;;;;20.92;81.34;100057.88;5091013;28;20251;-85
2023/08/25 03:09:16;;;;;;;7.25;3.13;;;;;;;20.85;81.50;100051.47;5093329;28;20204;-85
2023/08/25 03:11:42;;;;;;;4.47;2.63;;;;;;;20.75;81.80;100057.97;5089321;28;20236;-86
2023/08/25 03:14:09;;;;;;;3.28;2.33;;;;;;;20.65;81.85;100060.03;5094731;28;20216;-84
2023/08/25 03:16:35;;;;;;;4.22;2.53;;;;;;;20.58;82.64;100064.47;5093027;28;20220;-84
2023/08/25 03:19:02;;;;;;;3.60;2.30;;;;;;;20.54;82.79;100063.13;5089551;28;20218;-85
2023/08/25 03:21:28;;;;;;;4.55;2.65;;;;;;;20.44;82.58;100057.06;5093573;28;20556;-84
2023/08/25 03:23:56;;;;;;;4.13;2.78;;;;;;;20.34;82.97;100051.00;5093722;28;20207;-85
2023/08/25 03:26:23;;;;;;;3.88;2.67;;;;;;;20.27;83.81;100061.66;5091635;28;20223;-84
2023/08/25 03:28:49;;;;;;;3.28;2.30;;;;;;;20.22;84.32;100047.00;5096527;28;20218;-84
2023/08/25 03:31:16;;;;;;;3.75;2.63;;;;;;;20.20;84.83;100059.84;5090668;28;20617;-85
2023/08/25 03:33:42;;;;;;;3.97;2.85;;;;;;;20.15;85.33;100057.66;5092275;28;20211;-84
2023/08/25 03:36:09;;;;;;;4.45;3.00;;;;;;;20.15;86.07;100060.34;5089558;28;20235;-84
2023/08/25 03:38:35;;;;;;;3.88;2.60;;;;;;;20.17;86.52;100057.47;5090111;28;20285;-84
2023/08/25 03:41:03;;;;;;;2.95;2.40;;;;;;;20.19;86.52;100058.16;5093427;28;20216;-85
2023/08/25 03:43:29;;;;;;;5.68;3.08;;;;;;;20.19;86.29;100052.75;5089715;28;20403;-84
2023/08/25 03:45:56;;;;;;;4.67;2.50;;;;;;;20.21;86.07;100067.78;5091083;28;20231;-84
2023/08/25 03:48:24;;;;;;;6.38;2.95;;;;;;;20.23;86.06;100073.84;5087888;28;20668;-84
2023/08/25 03:50:50;;;;;;;4.60;2.47;;;;;;;20.26;85.94;100069.94;5091130;28;20793;-84
2023/08/25 03:53:17;;;;;;;4.03;2.83;;;;;;;20.26;86.06;100078.03;5093371;28;20211;-85
2023/08/25 03:55:44;;;;;;;3.13;2.60;;;;;;;20.29;85.99;100075.00;5092652;28;20231;-84
2023/08/25 03:58:13;;;;;;;3.87;2.90;;;;;;;20.29;85.86;100075.84;5092030;28;20202;-85
2023/08/25 04:00:40;;;;;;;4.40;2.67;;;;;;;20.28;85.95;100076.03;5092066;28;20214;-85
2023/08/25 04:03:07;;;;;;;5.20;2.80;;;;;;;20.28;86.17;100079.56;5091641;28;20660;-86
2023/08/25 04:05:34;;;;;;;4.18;2.75;;;;;;;20.28;86.17;100082.28;5088031;28;20236;-85
2023/08/25 04:08:01;;;;;;;5.47;2.93;;;;;;;20.30;86.30;100076.69;5089704;28;20200;-85
2023/08/25 04:10:27;;;;;;;4.25;2.80;;;;;;;20.29;86.38;100072.28;5083656;28;20840;-84
2023/08/25 04:12:54;;;;;;;3.93;2.63;;;;;;;20.28;86.26;100073.31;5093355;28;20230;-84
2023/08/25 04:15:22;;;;;;;4.23;2.87;;;;;;;20.27;86.43;100077.88;5088239;28;20679;-84
2023/08/25 04:17:48;;;;;;;3.47;2.88;;;;;;;20.25;86.50;100077.19;5087337;28;20244;-84
2023/08/25 04:20:15;;;;;;;3.92;3.08;;;;;;;20.26;86.75;100080.75;5091831;28;20257;-84
2023/08/25 04:22:42;;;;;;;4.10;2.77;;;;;;;20.25;86.69;100077.19;5089665;28;20215;-84
2023/08/25 04:25:09;;;;;;;3.58;2.65;;;;;;;20.25;86.69;100076.34;5095372;28;20678;-86
2023/08/25 04:27:36;;;;;;;4.85;2.63;;;;;;;20.23;86.71;100081.97;5086267;28;20719;-85
2023/08/25 04:30:02;;;;;;;4.65;2.83;;;;;;;20.24;86.64;100077.41;5089774;28;20210;-85
2023/08/25 04:32:30;;;;;;;4.28;2.50;;;;;;;20.23;86.85;100068.44;5088427;28;20230;-85
2023/08/25 04:34:57;;;;;;;5.38;3.63;;;;;;;20.23;86.40;100071.16;5086977;28;20604;-84
2023/08/25 04:37:23;;;;;;;6.55;3.35;;;;;;;20.17;86.23;100065.59;5088179;28;20219;-84
2023/08/25 04:39:49;;;;;;;3.10;2.72;;;;;;;20.10;86.50;100065.41;5094757;28;20210;-85
2023/08/25 04:42:16;;;;;;;4.43;2.73;;;;;;;20.04;86.91;100053.47;5088669;28;20199;-84
2023/08/25 04:44:42;;;;;;;3.50;2.77;;;;;;;19.99;87.23;100061.22;5090976;28;20238;-84
2023/08/25 04:47:09;;;;;;;3.33;2.83;;;;;;;19.96;87.31;100066.97;5092497;28;20226;-84
2023/08/25 04:49:37;;;;;;;2.90;2.65;;;;;;;19.92;87.51;100056.66;5088508;28;20222;-85
2023/08/25 04:52:04;;;;;;;5.87;2.93;;;;;;;19.90;87.91;100058.69;5092574;28;20227;-84
2023/08/25 04:54:30;;;;;;;5.77;3.40;;;;;;;19.89;88.02;100070.53;5092347;28;20260;-84
2023/08/25 04:56:57;;;;;;;5.37;3.20;;;;;;;19.87;88.28;100062.63;5086654;28;20220;-84
2023/08/25 04:59:24;;;;;;;4.57;3.33;;;;;;;19.88;88.68;100064.31;5086673;28;20214;-84
2023/08/25 05:01:50;;;;;;;4.27;3.30;;;;;;;19.89;88.86;100067.81;5087545;28;20210;-84
2023/08/25 05:04:19;;;;;;;5.30;3.00;;;;;;;19.85;89.34;100061.94;5090137;28;20219;-84
2023/08/25 05:06:47;;;;;;;4.03;2.80;;;;;;;19.83;89.33;100068.53;5081843;28;20242;-84
2023/08/25 05:09:13;;;;;;;4.57;2.80;;;;;;;19.82;89.83;100073.06;5081352;28;20209;-84
2023/08/25 05:11:40;;;;;;;4.23;3.00;;;;;;;19.81;89.88;100067.84;5088858;28;20706;-85
2023/08/25 05:14:07;;;;;;;4.40;2.67;;;;;;;19.81;90.21;100066.00;5092961;28;20226;-84
2023/08/25 05:16:33;;;;;;;5.07;3.43;;;;;;;19.82;90.57;100059.56;5086776;28;20257;-85
2023/08/25 05:18:59;;;;;;;6.93;3.47;;;;;;;19.83;90.87;100055.00;5093592;28;20208;-84
2023/08/25 05:21:26;;;;;;;10.07;3.30;;;;;;;19.84;91.47;100052.13;5091097;28;20214;-83
2023/08/25 05:24:18;;;;;;;6.20;3.43;;;;;;;19.85;91.98;100061.94;5098584;28;20212;-82
2023/08/25 05:26:47;;;;;;;6.73;3.27;;;;;;;19.88;92.65;100060.75;5095675;28;20234;-83
2023/08/25 05:29:14;;;;;;;3.87;2.90;;;;;;;19.91;92.70;100063.94;5099220;28;20282;-83
2023/08/25 05:31:41;;;;;;;3.77;2.90;;;;;;;19.94;93.10;100070.84;5094631;28;20239;-83
2023/08/25 05:34:07;;;;;;;5.87;3.27;;;;;;;19.98;93.20;100062.25;5096354;28;20210;-82
2023/08/25 05:36:34;;;;;;;4.60;2.93;;;;;;;20.01;93.04;100055.66;5101597;28;20233;-82
2023/08/25 05:39:01;;;;;;;5.93;2.90;;;;;;;20.08;92.87;100062.03;5094181;28;20286;-82
2023/08/25 05:41:28;;;;;;;5.53;3.00;;;;;;;20.15;92.85;100071.16;5097480;28;20210;-82
2023/08/25 05:43:55;;;;;;;5.07;2.77;;;;;;;20.27;93.62;100068.91;5095047;28;20228;-82
2023/08/25 05:46:21;;;;;;;3.70;2.60;;;;;;;20.38;92.48;100072.16;5095032;28;20222;-83
2023/08/25 05:48:48;;;;;;;5.88;2.80;;;;;;;20.49;90.35;100073.63;5099915;28;20205;-83
2023/08/25 05:51:14;;;;;;;6.90;3.00;;;;;;;20.59;88.89;100071.56;5091783;28;20210;-82
2023/08/25 05:53:41;;;;;;;3.28;2.55;;;;;;;20.66;87.40;100066.28;5092384;28;20675;-82
2023/08/25 05:56:07;;;;;;;3.67;2.70;;;;;;;20.75;87.05;100079.59;5097043;28;20227;-82
2023/08/25 05:58:35;;;;;;;4.05;2.92;;;;;;;20.82;86.33;100081.59;5098368;28;20206;-82
2023/08/25 06:01:02;;;;;;;3.83;2.90;;;;;;;20.93;84.52;100086.63;5101413;28;20204;-81
2023/08/25 06:03:28;;;;;;;4.72;2.83;;;;;;;21.07;82.49;100091.28;5102221;28;20200;-82
2023/08/25 06:05:55;;;;;;;6.47;2.53;;;;;;;21.15;82.56;100091.22;5099237;28;20230;-82
2023/08/25 06:08:21;;;;;;;4.47;2.60;;;;;;;21.25;82.20;100096.44;5101784;28;20210;-83
2023/08/25 06:10:48;;;;;;;3.53;2.35;;;;;;;21.36;81.73;100090.59;5104002;28;20204;-83
2023/08/25 06:13:14;;;;;;;3.78;2.38;;;;;;;21.46;80.56;100091.22;5101007;28;20291;-83
2023/08/25 06:15:42;;;;;;;4.05;2.17;;;;;;;21.58;80.34;100097.88;5097132;28;20603;-83
2023/08/25 06:18:08;;;;;;;6.22;3.10;;;;;;;21.71;79.93;100102.69;5101149;28;20348;-82
2023/08/25 06:20:35;;;;;;;5.88;2.30;;;;;;;21.82;78.93;100094.16;5098727;28;20581;-82
2023/08/25 06:23:02;;;;;;;5.43;2.92;;;;;;;21.95;78.46;100090.78;5102663;28;20211;-82
2023/08/25 06:25:28;;;;;;;5.30;2.90;;;;;;;22.05;78.51;100089.53;5100964;28;20232;-83
2023/08/25 06:27:55;;;;;;;3.53;2.60;;;;;;;22.15;77.54;100087.41;5100070;28;20203;-83
2023/08/25 06:30:21;;;;;;;4.63;2.33;;;;;;;22.25;76.37;100075.44;5102229;28;20595;-82
2023/08/25 06:32:49;;;;;;;4.10;2.60;;;;;;;22.34;75.84;100074.31;5098070;28;20688;-82
2023/08/25 06:35:16;;;;;;;4.32;2.58;;;;;;;22.45;75.30;100071.13;5103851;28;20210;-83
2023/08/25 06:37:42;;;;;;;5.10;2.72;;;;;;;22.52;74.59;100062.06;5101663;28;20230;-83
2023/08/25 06:40:10;;;;;;;3.25;2.65;;;;;;;22.62;74.81;100061.75;5101430;28;20224;-81
2023/08/25 06:42:37;;;;;;;4.45;3.00;;;;;;;22.72;74.31;100062.31;5102974;28;20203;-81
2023/08/25 06:45:05;;;;;;;4.10;2.90;;;;;;;22.82;74.26;100062.88;5103443;28;20210;-81
2023/08/25 06:47:31;;;;;;;3.13;2.38;;;;;;;22.91;73.98;100073.66;5102485;28;20326;-80
2023/08/25 06:49:59;;;;;;;4.13;3.00;;;;;;;22.98;73.55;100079.97;5098509;28;20567;-82
2023/08/25 06:52:25;;;;;;;3.97;2.33;;;;;;;23.07;72.96;100078.84;5101773;28;20217;-80
2023/08/25 06:54:52;;;;;;;3.58;2.60;;;;;;;23.15;72.46;100074.13;5098448;28;20657;-81
2023/08/25 06:57:18;;;;;;;3.83;2.90;;;;;;;23.25;71.83;100073.81;5098646;28;20224;-81
2023/08/25 06:59:45;;;;;;;4.35;2.95;;;;;;;23.32;70.95;100071.16;5101887;28;20660;-80
2023/08/25 07:02:13;;;;;;;3.67;2.80;;;;;;;23.37;70.49;100064.13;5103819;28;20204;-80
2023/08/25 07:04:39;;;;;;;4.50;2.28;;;;;;;23.47;70.06;100061.06;5094325;28;20231;-80
2023/08/25 07:07:07;;;;;;;4.10;2.80;;;;;;;23.54;70.56;100064.72;5099823;28;20216;-81
2023/08/25 07:09:35;;;;;;;2.75;2.22;;;;;;;23.67;70.21;100061.28;5100265;28;20203;-81
2023/08/25 07:12:03;;;;;;;3.92;2.47;;;;;;;23.77;69.95;100056.34;5104857;28;20541;-80
2023/08/25 07:14:31;;;;;;;4.93;2.78;;;;;;;23.85;69.02;100040.72;5100697;28;20216;-80
2023/08/25 07:16:58;;;;;;;6.20;2.70;;;;;;;23.96;67.64;100033.91;5096928;28;20648;-82
2023/08/25 07:19:24;;;;;;;3.65;2.13;;;;;;;24.00;67.24;100037.06;5102668;28;20204;-79
2023/08/25 07:21:51;;;;;;;3.60;2.60;;;;;;;24.03;66.40;100018.44;5101937;28;20195;-83
2023/08/25 07:24:19;;;;;;;6.85;2.80;;;;;;;24.11;65.83;100029.19;5099580;28;20261;-80
2023/08/25 07:26:48;;;;;;;4.43;2.55;;;;;;;24.10;66.46;100029.38;5106009;28;20295;-80
2023/08/25 07:29:14;;;;;;;4.28;2.10;;;;;;;24.13;65.87;100032.56;5110062;28;20208;-80
2023/08/25 07:31:40;;;;;;;2.78;2.35;;;;;;;24.26;65.76;100036.41;5103107;28;20204;-80
2023/08/25 07:34:07;;;;;;;3.85;2.60;;;;;;;24.37;65.56;100038.56;5103462;28;20570;-80
2023/08/25 07:36:33;;;;;;;5.80;2.50;;;;;;;24.48;65.10;100049.75;5103187;28;20250;-81
2023/08/25 07:39:00;;;;;;;3.63;2.60;;;;;;;24.58;64.61;100060.25;5103373;28;20214;-81
2023/08/25 07:41:28;;;;;;;3.80;2.35;;;;;;;24.68;64.13;100074.34;5102295;28;20207;-80
2023/08/25 07:43:54;;;;;;;5.15;2.40;;;;;;;24.78;64.12;100072.06;5101965;28;20208;-80
2023/08/25 07:46:21;;;;;;;2.92;1.90;;;;;;;24.86;63.37;100079.25;5102696;28;20754;-81
2023/08/25 07:48:47;;;;;;;3.72;2.40;;;;;;;24.92;62.83;100075.69;5100624;28;20294;-82
2023/08/25 07:51:16;;;;;;;5.50;2.15;;;;;;;25.02;62.22;100070.75;5102161;28;20200;-81
2023/08/25 07:53:42;;;;;;;3.42;2.20;;;;;;;25.04;61.85;100078.72;5098211;28;20227;-80
2023/08/25 07:56:09;;;;;;;4.95;2.78;;;;;;;25.09;62.53;100085.19;5101584;28;20212;-81
2023/08/25 07:58:37;;;;;;;7.65;2.70;;;;;;;25.18;62.76;100094.03;5103119;28;20199;-81
2023/08/25 08:01:03;;;;;;;5.70;2.72;;;;;;;25.30;62.50;100094.28;5102865;28;20206;-80
2023/08/25 08:03:31;;;;;;;3.45;3.13;;;;;;;25.39;61.20;100099.34;5096009;28;20191;-81
2023/08/25 08:05:57;;;;;;;3.50;2.47;;;;;;;25.50;61.26;100106.06;5102067;28;20219;-81
2023/08/25 08:08:24;;;;;;;5.35;2.70;;;;;;;25.56;61.29;100102.53;5097419;28;20207;-81
2023/08/25 08:10:50;;;;;;;4.82;2.40;;;;;;;25.66;60.90;100102.97;5100714;28;20228;-81
2023/08/25 08:13:16;;;;;;;3.88;2.40;;;;;;;25.75;60.01;100101.75;5102903;28;20245;-81
2023/08/25 08:15:44;;;;;;;4.25;2.33;;;;;;;25.78;59.87;100100.47;5102161;28;20218;-81
2023/08/25 08:18:11;;;;;;;4.72;2.00;;;;;;;25.80;60.27;100099.19;5105173;28;20201;-82
2023/08/25 08:20:37;;;;;;;5.32;2.30;;;;;;;25.87;59.47;100102.78;5101997;28;20267;-81
2023/08/25 08:23:04;;;;;;;3.50;2.10;;;;;;;25.96;59.40;100095.25;5100359;28;20200;-81
2023/08/25 08:25:31;;;;;;;2.72;2.17;;;;;;;26.09;58.91;100088.94;5101421;28;20204;-80
2023/08/25 08:27:57;;;;;;;3.83;2.17;;;;;;;26.15;58.50;100097.13;5102886;28;20204;-82
2023/08/25 08:30:24;;;;;;;4.15;2.13;;;;;;;26.24;58.01;100089.53;5100211;28;20212;-81
2023/08/25 08:32:52;;;;;;;2.80;1.73;;;;;;;26.33;56.97;100082.84;5101769;28;20227;-81
2023/08/25 08:35:18;;;;;;;4.32;2.10;;;;;;;26.43;57.51;100082.38;5097550;28;20699;-80
2023/08/25 08:37:45;;;;;;;4.03;2.30;;;;;;;26.48;57.71;100079.88;5102410;28;20700;-80
2023/08/25 08:40:12;;;;;;;2.38;1.90;;;;;;;26.58;57.88;100082.97;5102556;28;20204;-80
2023/08/25 08:42:40;;;;;;;2.65;2.20;;;;;;;26.69;57.25;100082.31;5100180;28;20196;-82
2023/08/25 08:45:09;;;;;;;2.83;2.15;;;;;;;26.76;57.15;100080.38;5099986;28;20205;-81
2023/08/25 08:47:37;;;;;;;3.78;2.50;;;;;;;26.83;56.35;100075.75;5101906;28;20215;-82
2023/08/25 08:50:07;;;;;;;5.35;2.80;;;;;;;26.82;57.26;100084.16;5103739;28;20291;-81
2023/08/25 08:52:33;;;;;;;4.28;2.30;;;;;;;26.89;57.59;100088.53;5088769;28;20212;-84
2023/08/25 08:55:00;;;;;;;3.97;2.33;;;;;;;26.99;57.49;100098.19;5085704;28;20204;-82
2023/08/25 08:57:28;;;;;;;3.30;2.50;;;;;;;27.12;57.36;100109.06;5087666;28;20220;-82
2023/08/25 08:59:58;;;;;;;3.63;2.33;;;;;;;27.25;56.77;100098.88;5091338;28;20246;-83
2023/08/25 09:02:27;;;;;;;6.82;2.83;;;;;;;27.26;56.25;100099.72;5083439;28;20220;-83
2023/08/25 09:04:54;;;;;;;4.20;2.65;;;;;;;27.32;56.28;100104.34;5092828;28;20660;-81
2023/08/25 09:07:23;;;;;;;4.30;2.28;;;;;;;27.38;55.50;100111.66;5085157;28;20371;-81
2023/08/25 09:09:50;;;;;;;4.95;2.63;;;;;;;27.44;55.30;100118.13;5092389;28;20206;-82
2023/08/25 09:12:18;;;;;;;5.85;2.65;;;;;;;27.46;55.87;100121.50;5093675;28;20245;-81
2023/08/25 09:14:45;;;;;;;3.92;2.60;;;;;;;27.50;55.95;100128.22;5089284;28;20233;-83
2023/08/25 09:17:14;;;;;;;4.43;3.08;;;;;;;27.47;56.27;100120.44;5091373;28;20223;-83
2023/08/25 09:19:41;;;;;;;3.58;2.80;;;;;;;27.46;56.15;100119.59;5087095;28;20208;-83
2023/08/25 09:22:10;;;;;;;3.67;2.78;;;;;;;27.47;56.51;100129.47;5089538;28;20739;-81
2023/08/25 09:24:39;;;;;;;4.93;3.53;;;;;;;27.53;56.36;100128.63;5088337;28;20204;-83
2023/08/25 09:27:06;;;;;;;4.82;3.33;;;;;;;27.52;55.39;100132.41;5087243;28;20229;-83
2023/08/25 09:29:41;;;;;;;3.63;3.13;;;;;;;27.45;56.18;100131.59;5092716;28;20223;-81
2023/08/25 09:32:08;;;;;;;4.22;3.03;;;;;;;27.39;56.99;100124.28;5092364;28;20259;-82
2023/08/25 09:34:35;;;;;;;3.92;2.83;;;;;;;27.40;57.01;100120.50;5096963;28;20666;-84
2023/08/25 09:37:01;;;;;;;4.88;3.40;;;;;;;27.39;57.32;100120.72;5088051;28;20243;-81
2023/08/25 09:39:28;;;;;;;4.20;3.55;;;;;;;27.38;57.04;100108.09;5094214;28;20204;-84
2023/08/25 09:41:56;;;;;;;5.03;3.50;;;;;;;27.35;57.58;100127.66;5087379;28;20204;-82
2023/08/25 09:44:22;;;;;;;5.25;3.58;;;;;;;27.29;57.26;100122.00;5096225;28;20192;-83
2023/08/25 09:46:51;;;;;;;5.88;3.50;;;;;;;27.21;57.28;100124.19;5091774;28;20227;-80
2023/08/25 09:49:17;;;;;;;4.05;2.97;;;;;;;27.15;57.79;100134.06;5103257;28;20204;-81
2023/08/25 09:51:47;;;;;;;4.68;3.17;;;;;;;27.13;57.68;100154.47;5104578;28;20690;-81
2023/08/25 09:54:15;;;;;;;4.68;3.20;;;;;;;27.10;58.33;100150.28;5100464;28;20281;-80
2023/08/25 09:56:43;;;;;;;5.20;3.15;;;;;;;27.07;57.96;100155.34;5103985;28;20321;-82
2023/08/25 09:59:13;;;;;;;4.10;2.65;;;;;;;27.02;57.76;100166.09;5104901;28;20211;-81
2023/08/25 10:01:43;;;;;;;3.35;2.60;;;;;;;26.93;58.35;100158.09;5103317;28;20250;-80
2023/08/25 10:04:10;;;;;;;3.22;2.55;;;;;;;26.93;58.04;100149.06;5100832;28;20234;-81
2023/08/25 10:06:38;;;;;;;4.32;2.50;;;;;;;26.88;58.84;100132.47;5104860;28;20223;-81
2023/08/25 10:09:05;;;;;;;4.53;2.78;;;;;;;26.88;60.23;100157.88;5102064;28;20204;-80
2023/08/25 10:11:37;;;;;;;3.72;2.88;;;;;;;26.87;61.20;100183.53;5104148;28;20204;-81
2023/08/25 10:14:07;;;;;;;4.20;2.78;;;;;;;26.85;62.87;100180.22;5099223;28;20212;-80
2023/08/25 10:16:39;;;;;;;4.88;3.25;;;;;;;26.80;63.56;100176.44;5099973;28;20220;-80
2023/08/25 10:19:06;;;;;;;6.63;2.78;;;;;;;26.71;64.59;100194.94;5098820;28;20219;-80
2023/08/25 10:21:35;;;;;;;3.47;2.95;;;;;;;26.66;67.20;100180.25;5105139;28;20211;-80
2023/08/25 10:24:03;;;;;;;2.58;2.33;;;;;;;26.53;66.42;100192.00;5097606;28;20201;-80
2023/08/25 10:26:30;;;;;;;3.63;2.55;;;;;;;26.31;66.23;100182.38;5102278;28;20228;-79
2023/08/25 10:28:58;;;;;;;4.30;3.08;;;;;;;26.17;67.46;100170.56;5103505;28;20200;-81
2023/08/25 10:31:25;;;;;;;5.10;3.13;;;;;;;26.03;68.45;100158.81;5102375;28;20210;-80
2023/08/25 10:33:54;;;;;;;4.00;3.30;;;;;;;25.89;68.50;100165.31;5095015;28;20300;-81
2023/08/25 10:36:22;;;;;;;6.65;3.63;;;;;;;25.75;69.97;100175.38;5098219;28;20220;-80
2023/08/25 10:39:08;;;;;;;4.30;3.28;;;;;;;25.65;70.78;100171.34;5100999;28;20212;-80
2023/08/25 10:41:41;;;;;;;4.82;3.50;;;;;;;25.51;71.46;100143.19;5101276;28;20200;-79
2023/08/25 10:44:10;;;;;;;4.10;3.65;;;;;;;25.34;71.56;100117.34;5102276;28;20246;-79
2023/08/25 10:46:38;;;;;;;5.35;3.70;;;;;;;25.23;72.85;100095.13;5099496;28;20587;-79
2023/08/25 10:49:11;;;;;;;5.35;4.15;;;;;;;25.15;74.89;100127.16;5097837;28;20222;-81
2023/08/25 10:51:38;;;;;;;4.78;3.78;;;;;;;25.08;75.28;100150.84;5099483;28;20195;-80
2023/08/25 10:54:04;;;;;;;5.28;3.80;;;;;;;24.99;75.40;100144.69;5100576;28;20314;-80
2023/08/25 10:56:31;;;;;;;4.88;4.15;;;;;;;24.90;76.62;100138.53;5101800;28;20228;-80
2023/08/25 10:59:04;;;;;;;7.60;3.95;;;;;;;24.81;77.04;100160.72;5093562;28;20208;-79
2023/08/25 11:01:54;;;;;;;4.30;3.67;;;;;;;24.68;77.86;100180.53;5097895;28;20218;-79
2023/08/25 11:04:24;;;;;;;4.80;3.60;;;;;;;24.56;78.45;100188.41;5100698;28;20200;-80
2023/08/25 11:06:51;;;;;;;3.83;3.53;;;;;;;24.44;78.64;100197.31;5096309;28;20234;-80
2023/08/25 11:09:31;;;;;;;4.28;3.38;;;;;;;24.33;78.04;100189.72;5099741;28;20717;-81
2023/08/25 11:12:00;;;;;;;5.47;3.50;;;;;;;24.21;79.08;100178.47;5100811;28;20207;-80
2023/08/25 11:14:27;;;;;;;5.13;3.38;;;;;;;24.07;79.82;100161.19;5099700;28;20715;-79
2023/08/25 11:16:54;;;;;;;3.80;3.20;;;;;;;23.99;80.17;100161.38;5101061;28;20247;-81
2023/08/25 11:19:24;;;;;;;5.90;3.85;;;;;;;23.98;81.01;100146.06;5096293;28;20222;-82
2023/08/25 11:21:57;;;;;;;4.78;3.83;;;;;;;23.89;81.32;100112.72;5099665;28;20298;-81
2023/08/25 11:24:24;;;;;;;5.25;3.85;;;;;;;23.78;82.68;100090.66;5093995;28;20203;-81
2023/08/25 11:26:51;;;;;;;6.53;4.57;;;;;;;23.74;83.01;100090.22;5096747;28;20292;-81